Time;durP1;ratioP1;P1;durP2;ratioP2;P2;SDS_P1;SDS_P2;PMS_P1;PMS_P2;Temp;Humidity;BMP_temperature;BMP_pressure;BME280_temperature;BME280_humidity;BME280_pressure;Samples;Min_cycle;Max_cycle;Signal;HPM_P1;HPM_P2
2022/06/17 00:00:53;;;;;;;3.60;1.60;;;16.90;73.50;;;;;;5014000;28;20068;-78
2022/06/17 00:03:20;;;;;;;2.28;1.70;;;16.80;73.30;;;;;;4993551;28;20125;-79
2022/06/17 00:05:46;;;;;;;6.70;2.10;;;16.70;73.50;;;;;;5009445;28;20492;-78
2022/06/17 00:08:25;;;;;;;4.05;1.85;;;16.70;73.30;;;;;;5002197;28;20027;-79
2022/06/17 00:10:51;;;;;;;3.28;2.10;;;16.60;73.70;;;;;;5004522;28;20033;-78
2022/06/17 00:13:19;;;;;;;1.90;1.70;;;16.60;74.00;;;;;;5001987;28;20026;-79
2022/06/17 00:15:45;;;;;;;1.92;1.80;;;16.50;74.70;;;;;;4996026;28;20113;-78
2022/06/17 00:18:13;;;;;;;3.20;2.15;;;16.50;74.80;;;;;;5007675;28;20037;-79
2022/06/17 00:20:39;;;;;;;2.85;1.83;;;16.50;74.60;;;;;;5014146;28;20480;-78
2022/06/17 00:23:12;;;;;;;4.35;2.30;;;16.40;74.20;;;;;;5004317;28;20084;-78
2022/06/17 00:25:38;;;;;;;2.72;2.03;;;16.40;74.20;;;;;;5008233;28;20025;-79
2022/06/17 00:28:10;;;;;;;2.25;1.90;;;16.40;74.50;;;;;;4978322;28;20489;-80
2022/06/17 00:30:36;;;;;;;2.63;1.98;;;16.30;75.00;;;;;;5007954;28;20050;-79
2022/06/17 00:33:03;;;;;;;2.33;1.90;;;16.30;75.00;;;;;;5001068;28;20537;-78
2022/06/17 00:35:35;;;;;;;2.95;1.92;;;16.20;74.80;;;;;;5011806;28;20029;-78
2022/06/17 00:38:01;;;;;;;1.77;1.65;;;16.20;75.10;;;;;;5015825;28;20034;-79
2022/06/17 00:40:30;;;;;;;2.15;1.95;;;16.20;75.30;;;;;;5001814;28;20038;-80
2022/06/17 00:42:56;;;;;;;3.58;2.22;;;16.10;75.40;;;;;;4999350;28;20084;-79
2022/06/17 00:45:30;;;;;;;3.25;1.77;;;16.10;75.70;;;;;;5003136;28;20026;-80
2022/06/17 00:48:13;;;;;;;4.10;1.80;;;16.10;75.80;;;;;;4995526;28;20038;-79
2022/06/17 00:50:51;;;;;;;6.38;2.00;;;16.10;76.10;;;;;;5002557;28;20037;-80
2022/06/17 00:53:27;;;;;;;1.98;1.88;;;16.00;76.20;;;;;;5007372;28;20034;-80
2022/06/17 00:55:55;;;;;;;3.28;1.90;;;16.00;76.30;;;;;;5010842;28;20086;-81
2022/06/17 00:58:28;;;;;;;3.67;2.15;;;15.90;76.40;;;;;;5004396;28;20038;-80
2022/06/17 01:00:58;;;;;;;2.80;2.22;;;15.90;76.80;;;;;;4996724;28;20030;-80
2022/06/17 01:03:37;;;;;;;3.22;1.73;;;15.80;77.10;;;;;;4996905;28;20038;-80
2022/06/17 01:06:10;;;;;;;3.38;2.08;;;15.80;77.40;;;;;;5013526;28;20034;-81
2022/06/17 01:11:38;;;;;;;2.28;2.08;;;15.80;77.80;;;;;;5013831;28;20030;-80
2022/06/17 01:14:06;;;;;;;3.83;1.98;;;15.70;78.50;;;;;;5022715;28;20035;-78
2022/06/17 01:16:38;;;;;;;3.90;2.00;;;15.60;78.70;;;;;;4998439;28;20094;-78
2022/06/17 01:19:22;;;;;;;2.28;1.98;;;15.60;79.20;;;;;;5005893;28;20133;-80
2022/06/17 01:21:53;;;;;;;3.35;1.92;;;15.50;79.30;;;;;;4996735;28;20479;-78
2022/06/17 01:24:20;;;;;;;3.72;2.33;;;15.50;78.90;;;;;;5009103;28;20083;-78
2022/06/17 01:26:46;;;;;;;2.42;1.92;;;15.40;79.40;;;;;;4997185;28;20033;-80
2022/06/17 01:29:15;;;;;;;4.15;2.50;;;15.40;79.50;;;;;;5000428;28;20030;-80
2022/06/17 01:31:48;;;;;;;2.30;2.13;;;15.30;79.60;;;;;;4998232;28;20485;-80
2022/06/17 01:34:14;;;;;;;2.05;1.92;;;15.40;79.90;;;;;;5010263;28;20030;-79
2022/06/17 01:36:42;;;;;;;2.95;2.05;;;15.30;80.10;;;;;;5012643;28;20034;-80
2022/06/17 01:39:11;;;;;;;2.65;2.25;;;15.20;80.20;;;;;;5004369;28;20101;-78
2022/06/17 01:41:37;;;;;;;2.95;2.20;;;15.10;81.00;;;;;;4996054;28;20065;-78
2022/06/17 01:44:08;;;;;;;2.90;2.08;;;15.10;81.20;;;;;;5007141;28;20092;-80
2022/06/17 01:46:43;;;;;;;2.63;2.10;;;15.00;81.20;;;;;;5012935;28;20069;-82
2022/06/17 01:49:26;;;;;;;3.25;2.20;;;15.00;82.40;;;;;;5015615;28;20128;-79
2022/06/17 01:52:03;;;;;;;3.08;1.90;;;15.00;82.10;;;;;;5012552;28;20511;-80
2022/06/17 01:54:35;;;;;;;5.93;2.53;;;14.90;81.80;;;;;;5010651;28;20049;-79
2022/06/17 01:57:05;;;;;;;2.28;2.05;;;14.90;81.50;;;;;;5006864;28;20046;-81
2022/06/17 01:59:40;;;;;;;2.65;1.85;;;14.90;81.70;;;;;;5015276;28;20038;-80
2022/06/17 02:02:08;;;;;;;6.25;2.10;;;14.90;82.00;;;;;;5022083;28;20125;-81
2022/06/17 02:04:39;;;;;;;3.03;2.40;;;14.90;82.40;;;;;;5004967;28;20038;-80
2022/06/17 02:07:19;;;;;;;2.50;2.13;;;14.90;82.60;;;;;;5008882;28;20030;-81
2022/06/17 02:09:46;;;;;;;2.42;2.10;;;14.90;83.10;;;;;;5000565;28;20030;-81
2022/06/17 02:12:14;;;;;;;2.47;2.28;;;14.80;83.10;;;;;;5011159;28;20032;-80
2022/06/17 02:14:45;;;;;;;2.58;2.33;;;14.80;83.20;;;;;;4995309;28;20081;-80
2022/06/17 02:17:42;;;;;;;3.78;2.10;;;14.80;83.10;;;;;;5023182;28;20034;-82
2022/06/17 02:20:33;;;;;;;3.28;2.13;;;14.70;83.30;;;;;;5001257;28;20470;-81
2022/06/17 02:23:01;;;;;;;2.33;1.98;;;14.70;83.30;;;;;;4996610;28;20026;-81
2022/06/17 02:25:30;;;;;;;3.00;2.05;;;14.70;83.20;;;;;;5012937;28;20492;-79
2022/06/17 02:28:01;;;;;;;2.97;2.00;;;14.70;83.10;;;;;;5006773;28;20065;-78
2022/06/17 02:30:29;;;;;;;2.45;1.90;;;14.60;83.20;;;;;;4997385;28;20232;-79
2022/06/17 02:32:59;;;;;;;2.17;1.77;;;14.60;83.40;;;;;;5002254;28;20093;-78
2022/06/17 02:35:46;;;;;;;4.63;2.28;;;14.60;83.00;;;;;;5000350;28;20094;-79
2022/06/17 02:38:19;;;;;;;;;;;14.50;83.00;;;;;;5005956;28;20057;-79
2022/06/17 02:40:50;;;;;;;2.25;1.95;;;14.50;83.30;;;;;;5009690;28;19916;-80
2022/06/17 02:43:25;;;;;;;3.42;2.05;;;14.50;83.40;;;;;;4998247;28;20042;-79
2022/06/17 02:45:58;;;;;;;2.75;2.28;;;14.50;83.80;;;;;;4996762;28;20029;-79
2022/06/17 02:48:31;;;;;;;4.57;2.10;;;14.40;84.20;;;;;;4989849;28;20090;-78
2022/06/17 02:51:00;;;;;;;2.58;2.00;;;14.40;84.20;;;;;;5006597;28;20026;-79
2022/06/17 02:53:36;;;;;;;2.30;2.10;;;14.30;84.70;;;;;;4991698;28;20034;-79
2022/06/17 02:56:16;;;;;;;3.70;2.20;;;14.30;85.00;;;;;;4996486;28;20104;-78
2022/06/17 02:58:52;;;;;;;2.70;2.20;;;14.30;85.20;;;;;;5030406;28;20034;-78
2022/06/17 03:01:24;;;;;;;2.95;1.90;;;14.20;85.50;;;;;;4985223;28;20030;-78
2022/06/17 03:04:02;;;;;;;2.20;2.00;;;14.20;85.60;;;;;;4992129;28;20038;-78
2022/06/17 03:06:38;;;;;;;1.95;1.85;;;14.20;85.90;;;;;;5009430;28;20041;-78
2022/06/17 03:09:36;;;;;;;2.15;2.00;;;14.10;86.20;;;;;;5014197;28;20042;-78
2022/06/17 03:12:07;;;;;;;2.80;2.15;;;14.10;86.40;;;;;;4997661;28;20125;-78
2022/06/17 03:14:43;;;;;;;2.78;2.03;;;14.10;86.70;;;;;;4999503;28;20486;-79
2022/06/17 03:17:13;;;;;;;2.30;2.10;;;14.10;87.30;;;;;;4999301;28;20117;-78
2022/06/17 03:19:40;;;;;;;2.50;1.65;;;14.10;87.50;;;;;;4983740;28;20069;-79
2022/06/17 03:22:09;;;;;;;3.05;1.95;;;14.10;87.60;;;;;;5003466;28;20031;-78
2022/06/17 03:25:04;;;;;;;2.17;1.98;;;14.10;87.40;;;;;;5002686;28;20026;-78
2022/06/17 03:27:44;;;;;;;2.50;2.30;;;14.10;87.50;;;;;;5011593;28;20038;-78
2022/06/17 03:30:13;;;;;;;2.40;2.20;;;14.10;87.70;;;;;;5001775;28;20065;-77
2022/06/17 03:32:45;;;;;;;3.88;2.00;;;14.10;87.80;;;;;;5001324;28;20030;-77
2022/06/17 03:35:21;;;;;;;2.45;2.20;;;14.10;88.10;;;;;;4985113;28;20102;-78
2022/06/17 03:37:53;;;;;;;2.63;1.70;;;14.10;88.30;;;;;;4994217;28;20404;-78
2022/06/17 03:40:34;;;;;;;2.22;2.03;;;14.10;88.40;;;;;;5002280;28;20117;-78
2022/06/17 03:43:09;;;;;;;3.17;2.30;;;14.10;88.80;;;;;;4989147;28;20034;-78
2022/06/17 03:45:47;;;;;;;2.15;2.05;;;14.10;89.00;;;;;;5020602;28;20030;-78
2022/06/17 03:48:36;;;;;;;2.75;2.30;;;14.10;89.90;;;;;;4996291;28;20065;-78
2022/06/17 03:51:03;;;;;;;3.22;2.70;;;14.10;90.30;;;;;;5017337;28;20193;-78
2022/06/17 03:53:35;;;;;;;3.65;2.00;;;14.00;90.40;;;;;;5002674;28;20025;-79
2022/06/17 03:56:10;;;;;;;2.42;2.05;;;14.00;90.50;;;;;;5012991;28;20048;-78
2022/06/17 03:58:40;;;;;;;2.42;2.10;;;14.00;90.70;;;;;;4980947;28;20037;-78
2022/06/17 04:01:09;;;;;;;4.53;2.22;;;14.00;90.70;;;;;;5004590;28;20125;-79
2022/06/17 04:03:39;;;;;;;2.38;1.80;;;14.00;90.50;;;;;;5005510;28;20034;-77
2022/06/17 04:06:17;;;;;;;3.95;1.95;;;14.00;90.80;;;;;;5008275;28;20038;-79
2022/06/17 04:09:05;;;;;;;2.45;2.22;;;14.10;91.00;;;;;;4976856;28;20026;-79
2022/06/17 04:11:39;;;;;;;2.63;2.08;;;14.00;91.00;;;;;;4992147;28;20026;-78
2022/06/17 04:14:25;;;;;;;2.83;2.13;;;14.00;91.30;;;;;;5008271;28;20396;-79
2022/06/17 04:17:20;;;;;;;4.57;2.42;;;14.00;91.40;;;;;;5024136;28;20041;-79
2022/06/17 04:19:54;;;;;;;2.80;2.17;;;14.10;91.60;;;;;;5005491;28;20374;-79
2022/06/17 04:22:27;;;;;;;2.17;1.77;;;14.10;91.60;;;;;;5005552;28;20033;-79
2022/06/17 04:25:39;;;;;;;2.28;1.90;;;14.10;91.60;;;;;;5017977;28;20521;-79
2022/06/17 04:28:09;;;;;;;1.95;1.80;;;14.20;91.80;;;;;;5010833;28;20038;-81
2022/06/17 04:30:52;;;;;;;1.98;1.70;;;14.30;91.60;;;;;;5003847;28;20065;-78
2022/06/17 04:33:22;;;;;;;3.72;1.52;;;14.30;91.40;;;;;;5001181;28;20026;-80
2022/06/17 04:35:56;;;;;;;3.80;1.75;;;14.40;91.20;;;;;;4995031;28;20109;-80
2022/06/17 04:38:23;;;;;;;3.55;1.83;;;14.40;90.80;;;;;;4977858;28;20099;-79
2022/06/17 04:41:02;;;;;;;4.78;1.60;;;14.50;90.60;;;;;;5003436;28;20083;-80
2022/06/17 04:43:41;;;;;;;3.58;1.77;;;14.60;90.40;;;;;;4978869;28;20591;-79
2022/06/17 04:46:08;;;;;;;2.08;1.95;;;14.70;90.00;;;;;;4987914;28;20178;-80
2022/06/17 04:48:35;;;;;;;1.58;1.30;;;14.90;90.30;;;;;;4991741;28;20134;-78
2022/06/17 04:51:03;;;;;;;3.33;1.58;;;14.90;90.20;;;;;;5006030;28;20029;-79
2022/06/17 04:53:32;;;;;;;2.15;1.50;;;15.00;90.00;;;;;;5006928;28;20022;-77
2022/06/17 04:56:21;;;;;;;;;;;15.10;90.60;;;;;;5004945;28;20044;-79
2022/06/17 04:59:24;;;;;;;1.83;1.60;;;15.30;91.20;;;;;;5008946;28;20013;-79
2022/06/17 05:01:51;;;;;;;2.28;1.55;;;15.40;90.50;;;;;;5013017;28;20033;-79
2022/06/17 05:04:35;;;;;;;2.58;1.80;;;15.50;90.00;;;;;;5011315;28;20129;-79
2022/06/17 05:07:03;;;;;;;1.50;1.40;;;15.70;89.10;;;;;;5003920;28;20532;-79
2022/06/17 05:09:44;;;;;;;1.70;1.60;;;15.80;87.70;;;;;;4995581;28;20184;-79
2022/06/17 05:12:35;;;;;;;1.50;1.40;;;15.90;86.40;;;;;;5010760;28;20035;-79
2022/06/17 05:15:10;;;;;;;3.63;1.60;;;16.00;86.10;;;;;;5004205;28;20026;-79
2022/06/17 05:17:40;;;;;;;2.45;1.60;;;16.10;86.90;;;;;;4992969;28;20033;-79
2022/06/17 05:20:07;;;;;;;2.47;2.00;;;16.20;85.50;;;;;;4999554;28;20042;-80
2022/06/17 05:22:41;;;;;;;2.47;1.70;;;16.30;84.30;;;;;;5004613;28;20141;-78
2022/06/17 05:25:15;;;;;;;5.28;1.90;;;16.40;83.70;;;;;;5005618;28;20049;-79
2022/06/17 05:27:42;;;;;;;4.78;1.45;;;16.50;84.00;;;;;;5003519;28;20503;-79
2022/06/17 05:30:09;;;;;;;2.53;1.60;;;16.70;85.60;;;;;;4998191;28;20043;-79
2022/06/17 05:32:40;;;;;;;2.05;1.77;;;16.90;86.10;;;;;;5009066;28;20117;-79
2022/06/17 05:35:06;;;;;;;4.60;1.77;;;17.30;83.00;;;;;;4983035;28;20087;-78
2022/06/17 05:37:32;;;;;;;1.65;1.33;;;17.80;80.00;;;;;;5001850;28;20026;-78
2022/06/17 05:40:03;;;;;;;2.35;1.65;;;18.30;80.80;;;;;;4990747;28;20542;-78
2022/06/17 05:42:29;;;;;;;1.85;1.60;;;18.80;77.70;;;;;;4997680;28;20034;-79
2022/06/17 05:44:56;;;;;;;2.00;1.67;;;19.30;75.30;;;;;;4999995;28;20041;-77
2022/06/17 05:47:37;;;;;;;4.15;1.95;;;19.80;72.70;;;;;;4995886;28;20038;-79
2022/06/17 05:50:24;;;;;;;;;;;20.30;71.30;;;;;;5002156;28;20049;-80
2022/06/17 05:53:12;;;;;;;1.77;1.20;;;20.80;68.80;;;;;;4994478;28;19917;-79
2022/06/17 05:55:45;;;;;;;1.60;1.50;;;21.30;67.10;;;;;;4997602;28;20484;-80
2022/06/17 05:58:11;;;;;;;2.40;1.70;;;21.60;65.50;;;;;;4991277;28;20081;-80
2022/06/17 06:00:38;;;;;;;2.35;1.50;;;21.90;63.70;;;;;;5009576;28;20116;-79
2022/06/17 06:03:06;;;;;;;1.75;1.50;;;22.20;62.20;;;;;;5006640;28;20030;-79
2022/06/17 06:05:41;;;;;;;3.33;1.52;;;22.50;61.70;;;;;;4994773;28;20435;-79
2022/06/17 06:08:12;;;;;;;1.67;1.45;;;22.70;62.20;;;;;;5006055;28;20037;-79
2022/06/17 06:10:40;;;;;;;4.45;1.65;;;23.00;60.60;;;;;;4993778;28;20034;-80
2022/06/17 06:13:07;;;;;;;2.58;1.50;;;23.30;59.70;;;;;;4990406;28;20117;-79
2022/06/17 06:15:44;;;;;;;1.65;1.30;;;23.50;59.30;;;;;;4991823;28;20079;-78
2022/06/17 06:18:34;;;;;;;3.15;1.10;;;23.70;58.00;;;;;;5001880;28;20038;-77
2022/06/17 06:21:06;;;;;;;1.75;1.48;;;24.00;57.80;;;;;;5007374;28;20089;-78
2022/06/17 06:23:36;;;;;;;1.75;1.25;;;24.30;56.50;;;;;;5009486;28;20108;-79
2022/06/17 06:26:04;;;;;;;1.92;1.60;;;24.50;57.20;;;;;;5006920;28;20036;-79
2022/06/17 06:28:30;;;;;;;1.50;1.40;;;24.80;56.40;;;;;;4983131;28;20041;-78
2022/06/17 06:31:32;;;;;;;2.75;1.30;;;24.90;55.60;;;;;;5002588;28;20374;-80
2022/06/17 06:34:01;;;;;;;3.50;1.60;;;25.00;54.20;;;;;;4990422;28;20034;-79
2022/06/17 06:36:34;;;;;;;2.03;1.40;;;25.00;54.60;;;;;;5002194;28;20031;-79
2022/06/17 06:39:00;;;;;;;1.80;1.20;;;25.30;54.40;;;;;;4999253;28;20395;-78
2022/06/17 06:41:26;;;;;;;2.28;1.40;;;25.50;54.40;;;;;;4992935;28;20030;-78
2022/06/17 06:43:52;;;;;;;2.80;1.20;;;25.60;53.80;;;;;;5000092;28;20433;-81
2022/06/17 06:46:38;;;;;;;1.38;1.25;;;25.60;53.60;;;;;;5005190;28;20046;-78
2022/06/17 06:49:04;;;;;;;2.85;1.40;;;25.90;52.90;;;;;;5002488;28;20421;-78
2022/06/17 06:51:32;;;;;;;1.40;1.30;;;26.00;51.30;;;;;;4989052;28;20113;-79
2022/06/17 06:53:58;;;;;;;1.30;1.20;;;25.90;52.50;;;;;;4982659;28;20057;-78
2022/06/17 06:56:24;;;;;;;2.28;1.30;;;26.00;52.90;;;;;;5008086;28;20058;-78
2022/06/17 06:58:50;;;;;;;1.42;1.30;;;26.10;52.50;;;;;;4991445;28;20400;-78
2022/06/17 07:01:17;;;;;;;3.33;1.27;;;26.20;51.60;;;;;;5005143;28;20077;-78
2022/06/17 07:03:42;;;;;;;5.45;1.35;;;26.50;52.40;;;;;;5001767;28;20525;-77
2022/06/17 07:06:08;;;;;;;1.38;1.27;;;26.70;49.90;;;;;;4992818;28;20040;-77
2022/06/17 07:08:36;;;;;;;1.23;1.10;;;27.00;50.20;;;;;;5013459;28;20116;-77
2022/06/17 07:11:05;;;;;;;1.33;1.23;;;27.20;50.10;;;;;;5008280;28;20141;-78
2022/06/17 07:13:31;;;;;;;1.60;1.30;;;27.30;50.20;;;;;;5001292;28;20037;-78
2022/06/17 07:15:58;;;;;;;0.98;0.93;;;27.50;48.00;;;;;;4972077;28;20038;-79
2022/06/17 07:18:30;;;;;;;1.08;0.82;;;27.50;48.60;;;;;;5012134;28;20508;-78
2022/06/17 07:20:59;;;;;;;1.92;1.08;;;27.70;48.20;;;;;;5010794;28;20018;-78
2022/06/17 07:23:30;;;;;;;1.25;1.10;;;27.70;49.50;;;;;;4989453;28;20034;-77
2022/06/17 07:25:58;;;;;;;1.60;1.30;;;27.70;48.80;;;;;;4992200;28;20018;-78
2022/06/17 07:28:25;;;;;;;2.05;1.20;;;27.30;47.30;;;;;;5011524;28;20030;-78
2022/06/17 07:30:53;;;;;;;1.90;1.10;;;27.00;46.10;;;;;;5010708;28;20041;-78
2022/06/17 07:33:20;;;;;;;1.10;1.00;;;26.90;46.70;;;;;;5002725;28;20113;-78
2022/06/17 07:35:48;;;;;;;1.10;0.90;;;27.00;47.30;;;;;;5017784;28;20374;-78
2022/06/17 07:41:05;;;;;;;1.60;0.93;;;27.70;47.10;;;;;;5009472;28;20037;-79
2022/06/17 07:43:31;;;;;;;1.75;1.10;;;28.10;46.10;;;;;;5016708;28;20022;-79
2022/06/17 07:45:58;;;;;;;2.25;1.08;;;28.50;44.10;;;;;;5017271;28;20034;-79
2022/06/17 07:48:24;;;;;;;4.22;1.30;;;28.80;45.40;;;;;;5004351;28;20049;-79
2022/06/17 07:50:50;;;;;;;2.63;0.85;;;29.00;44.10;;;;;;5022943;28;20029;-80
2022/06/17 07:53:17;;;;;;;1.10;0.98;;;28.90;44.60;;;;;;5018785;28;20223;-79
2022/06/17 07:55:43;;;;;;;3.67;2.25;;;29.00;42.90;;;;;;5017463;28;20025;-79
2022/06/17 07:58:12;;;;;;;4.90;3.55;;;28.60;42.70;;;;;;5018237;28;20703;-79
2022/06/17 08:00:41;;;;;;;1.25;0.90;;;28.30;46.30;;;;;;5017001;28;20030;-78
2022/06/17 08:03:08;;;;;;;2.17;1.10;;;28.40;45.80;;;;;;4998639;28;20052;-81
2022/06/17 08:05:35;;;;;;;0.70;0.70;;;28.40;45.60;;;;;;4996667;28;20025;-80
2022/06/17 08:08:03;;;;;;;1.05;1.05;;;28.30;44.40;;;;;;5037470;28;20496;-79
2022/06/17 08:10:31;;;;;;;1.13;0.70;;;28.20;45.80;;;;;;5020065;28;20048;-80
2022/06/17 08:12:58;;;;;;;1.40;0.95;;;28.00;45.40;;;;;;5012485;28;20031;-78
2022/06/17 08:15:24;;;;;;;1.20;1.00;;;27.90;44.90;;;;;;5012181;28;20384;-79
2022/06/17 08:17:50;;;;;;;1.00;0.82;;;27.70;44.90;;;;;;5017754;28;20045;-79
2022/06/17 08:20:25;;;;;;;3.42;1.10;;;27.40;44.50;;;;;;5019808;28;20082;-78
2022/06/17 08:22:51;;;;;;;1.52;0.82;;;27.20;44.50;;;;;;5029389;28;20033;-79
2022/06/17 08:25:17;;;;;;;2.05;0.80;;;27.00;46.10;;;;;;4980509;28;20117;-81
2022/06/17 08:27:49;;;;;;;1.30;0.82;;;26.90;46.30;;;;;;5014001;28;20088;-81
2022/06/17 08:30:17;;;;;;;1.08;0.80;;;26.60;48.10;;;;;;5005275;28;20034;-80
2022/06/17 08:32:45;;;;;;;3.92;1.00;;;26.40;46.40;;;;;;5011575;28;20026;-80
2022/06/17 08:35:16;;;;;;;0.73;0.70;;;26.40;45.50;;;;;;5006699;28;20059;-80
2022/06/17 08:37:43;;;;;;;1.20;0.75;;;26.20;48.00;;;;;;5005082;28;20031;-81
2022/06/17 08:40:36;;;;;;;1.20;0.80;;;26.30;46.00;;;;;;5011286;28;20032;-80
2022/06/17 08:43:08;;;;;;;1.00;0.70;;;26.20;46.60;;;;;;5004916;28;20548;-80
2022/06/17 08:45:49;;;;;;;1.48;1.17;;;26.20;47.50;;;;;;5009759;28;20033;-80
2022/06/17 08:48:42;;;;;;;2.72;0.73;;;26.30;45.40;;;;;;5007013;28;20029;-81
2022/06/17 08:51:12;;;;;;;1.17;1.10;;;26.30;44.60;;;;;;5008201;28;20042;-81
2022/06/17 08:53:56;;;;;;;3.50;0.70;;;26.20;46.50;;;;;;5003911;28;20030;-80
2022/06/17 08:56:48;;;;;;;1.75;0.90;;;26.20;45.50;;;;;;5008672;28;20037;-80
2022/06/17 08:59:45;;;;;;;1.50;0.65;;;26.10;45.80;;;;;;5012342;28;20038;-81
2022/06/17 09:02:31;;;;;;;3.63;0.88;;;26.30;46.70;;;;;;5005156;28;20034;-81
2022/06/17 09:05:10;;;;;;;;;;;26.70;46.90;;;;;;5008314;28;20107;-82
2022/06/17 09:08:04;;;;;;;1.08;0.80;;;27.00;44.30;;;;;;5012498;28;19909;-80
2022/06/17 09:11:00;;;;;;;0.82;0.75;;;27.20;46.60;;;;;;5008759;28;20056;-80
2022/06/17 09:13:33;;;;;;;0.70;0.60;;;27.20;43.30;;;;;;5001300;28;20444;-81
2022/06/17 09:16:14;;;;;;;0.75;0.50;;;27.00;45.20;;;;;;5006798;28;20033;-80
2022/06/17 09:18:43;;;;;;;1.15;0.63;;;26.70;44.70;;;;;;5003807;28;20062;-81
2022/06/17 09:21:17;;;;;;;1.27;0.80;;;26.60;44.90;;;;;;5012192;28;20038;-81
2022/06/17 09:23:44;;;;;;;1.30;0.80;;;26.40;45.00;;;;;;5004149;28;20041;-81
2022/06/17 09:26:32;;;;;;;1.23;0.70;;;26.20;44.00;;;;;;5007198;28;20025;-81
2022/06/17 09:29:40;;;;;;;2.25;0.82;;;26.00;45.50;;;;;;5000196;28;20504;-81
2022/06/17 09:32:48;;;;;;;1.80;0.80;;;25.70;45.30;;;;;;5011689;28;20034;-79
2022/06/17 09:35:39;;;;;;;2.78;0.90;;;25.50;45.40;;;;;;5004926;28;20057;-79
2022/06/17 09:38:21;;;;;;;2.15;0.80;;;25.10;44.80;;;;;;5006040;28;20069;-81
2022/06/17 09:40:56;;;;;;;0.77;0.70;;;24.90;46.50;;;;;;5009174;28;20029;-80
2022/06/17 09:43:27;;;;;;;0.52;0.52;;;24.70;46.00;;;;;;5002071;28;20121;-80
2022/06/17 09:45:57;;;;;;;0.80;0.75;;;24.60;45.60;;;;;;5011022;28;20099;-80
2022/06/17 09:48:26;;;;;;;1.42;1.33;;;24.30;45.90;;;;;;5010369;28;20033;-80
2022/06/17 09:50:54;;;;;;;1.00;0.70;;;24.20;45.40;;;;;;5010654;28;20030;-81
2022/06/17 09:53:33;;;;;;;0.98;0.70;;;24.10;47.20;;;;;;4999048;28;20461;-80
2022/06/17 09:56:19;;;;;;;2.33;0.63;;;23.80;44.60;;;;;;5017054;28;20552;-79
2022/06/17 09:58:51;;;;;;;2.00;0.80;;;23.80;45.20;;;;;;5003611;28;20041;-79
2022/06/17 10:01:19;;;;;;;1.45;0.60;;;23.70;45.80;;;;;;5008570;28;20503;-78
2022/06/17 10:03:45;;;;;;;0.50;0.50;;;23.70;44.20;;;;;;4997232;28;20026;-79
2022/06/17 10:06:33;;;;;;;1.42;0.50;;;23.70;44.60;;;;;;5014332;28;20033;-79
2022/06/17 10:09:29;;;;;;;0.45;0.45;;;23.70;46.30;;;;;;5009640;28;20061;-80
2022/06/17 10:12:11;;;;;;;1.02;0.50;;;23.80;45.50;;;;;;5008669;28;20121;-78
2022/06/17 10:14:58;;;;;;;3.85;0.65;;;23.70;44.60;;;;;;5011277;28;20030;-79
2022/06/17 10:20:21;;;;;;;1.38;0.70;;;23.60;43.40;;;;;;4998520;28;20034;-79
2022/06/17 10:23:18;;;;;;;0.95;0.45;;;23.60;45.50;;;;;;5012154;28;20056;-76
2022/06/17 10:26:31;;;;;;;1.35;0.60;;;23.60;46.30;;;;;;5002347;28;20026;-80
2022/06/17 10:29:18;;;;;;;0.65;0.63;;;23.70;47.70;;;;;;4984042;28;20057;-78
2022/06/17 10:31:47;;;;;;;1.40;0.50;;;23.70;46.00;;;;;;5004433;28;20089;-81
2022/06/17 10:34:22;;;;;;;0.88;0.60;;;23.70;46.30;;;;;;5011661;28;20030;-78
2022/06/17 10:36:52;;;;;;;1.30;0.57;;;23.70;45.00;;;;;;5033588;28;20385;-80
2022/06/17 10:39:20;;;;;;;1.33;0.60;;;23.70;46.80;;;;;;4996023;28;20124;-77
2022/06/17 10:41:47;;;;;;;0.57;0.57;;;23.70;46.30;;;;;;5009096;28;20027;-77
2022/06/17 10:44:16;;;;;;;0.82;0.60;;;23.70;46.80;;;;;;5012305;28;20635;-78
2022/06/17 10:46:56;;;;;;;0.52;0.52;;;23.70;47.70;;;;;;5024433;28;20022;-77
2022/06/17 10:49:42;;;;;;;1.48;0.47;;;23.80;47.00;;;;;;5005591;28;20076;-77
2022/06/17 10:52:14;;;;;;;;;;;23.90;46.30;;;;;;5023110;28;20124;-78
2022/06/17 10:54:42;;;;;;;2.20;0.50;;;24.00;46.60;;;;;;4994325;28;19976;-79
2022/06/17 10:57:10;;;;;;;0.45;0.45;;;24.10;46.00;;;;;;5024829;28;20420;-78
2022/06/17 10:59:41;;;;;;;0.70;0.60;;;24.20;45.60;;;;;;5031301;28;20041;-78
2022/06/17 11:02:25;;;;;;;0.40;0.40;;;24.40;46.80;;;;;;5016930;28;20030;-77
2022/06/17 11:05:02;;;;;;;0.70;0.60;;;24.50;46.60;;;;;;5009634;28;20117;-77
2022/06/17 11:07:36;;;;;;;0.50;0.50;;;24.70;46.80;;;;;;5019205;28;20034;-77
2022/06/17 11:10:18;;;;;;;1.15;0.57;;;24.90;45.40;;;;;;5007674;28;20410;-78
2022/06/17 11:13:02;;;;;;;0.40;0.40;;;25.00;43.70;;;;;;5006163;28;20030;-78
2022/06/17 11:15:29;;;;;;;1.35;0.40;;;25.00;43.90;;;;;;5004460;28;20030;-77
2022/06/17 11:18:00;;;;;;;0.40;0.40;;;25.00;44.40;;;;;;5005258;28;20031;-78
2022/06/17 11:20:29;;;;;;;1.00;0.80;;;24.90;43.60;;;;;;5008175;28;20045;-78
2022/06/17 11:23:16;;;;;;;1.55;0.60;;;24.80;43.00;;;;;;5020872;28;20041;-78
2022/06/17 11:25:43;;;;;;;0.52;0.50;;;24.70;44.00;;;;;;5001805;28;20032;-77
2022/06/17 11:28:23;;;;;;;0.45;0.45;;;24.70;44.10;;;;;;5011044;28;20033;-77
2022/06/17 11:31:01;;;;;;;0.68;0.60;;;24.60;42.90;;;;;;5016645;28;20099;-78
2022/06/17 11:33:40;;;;;;;0.43;0.43;;;24.70;44.70;;;;;;5016799;28;20065;-78
2022/06/17 11:36:13;;;;;;;0.55;0.55;;;24.80;44.90;;;;;;5000831;28;20054;-78
2022/06/17 11:38:39;;;;;;;1.38;0.82;;;25.00;44.90;;;;;;5030906;28;20029;-77
2022/06/17 11:41:06;;;;;;;0.52;0.40;;;25.30;43.50;;;;;;5022314;28;20433;-77
2022/06/17 11:43:39;;;;;;;1.33;0.70;;;25.40;45.50;;;;;;5006690;28;20030;-77
2022/06/17 11:46:16;;;;;;;0.30;0.30;;;25.60;43.10;;;;;;4994126;28;20041;-77
2022/06/17 11:48:50;;;;;;;0.68;0.55;;;25.70;42.50;;;;;;5016860;28;20095;-77
2022/06/17 11:51:34;;;;;;;0.47;0.30;;;25.90;42.90;;;;;;5034386;28;20112;-77
2022/06/17 11:54:07;;;;;;;0.40;0.40;;;26.00;42.30;;;;;;5020773;28;20034;-77
2022/06/17 11:56:42;;;;;;;1.23;0.60;;;26.10;44.00;;;;;;5002830;28;20465;-77
2022/06/17 11:59:15;;;;;;;0.73;0.40;;;26.20;44.40;;;;;;5010180;28;20042;-78
2022/06/17 12:01:53;;;;;;;1.75;0.70;;;26.40;43.80;;;;;;5006911;28;20138;-77
2022/06/17 12:04:42;;;;;;;2.78;0.77;;;26.50;42.70;;;;;;5013215;28;20500;-77
2022/06/17 12:07:30;;;;;;;3.50;0.50;;;26.70;43.70;;;;;;5025784;28;20033;-78
2022/06/17 12:10:23;;;;;;;0.43;0.35;;;26.80;40.00;;;;;;5018748;28;20029;-78
2022/06/17 12:12:52;;;;;;;0.32;0.32;;;26.60;39.10;;;;;;5003677;28;20036;-78
2022/06/17 12:15:25;;;;;;;1.58;0.57;;;26.40;38.20;;;;;;5012863;28;20180;-78
2022/06/17 12:17:55;;;;;;;0.88;0.45;;;26.30;41.00;;;;;;4995842;28;20034;-78
2022/06/17 12:20:38;;;;;;;3.63;0.50;;;26.40;41.50;;;;;;5003072;28;20125;-78
2022/06/17 12:23:12;;;;;;;1.05;0.50;;;26.60;42.20;;;;;;5021095;28;20025;-78
2022/06/17 12:25:51;;;;;;;0.60;0.60;;;27.00;43.30;;;;;;5008862;28;20034;-78
2022/06/17 12:28:19;;;;;;;0.40;0.40;;;27.40;41.40;;;;;;4996358;28;20607;-78
2022/06/17 12:31:22;;;;;;;0.45;0.45;;;27.90;41.60;;;;;;5018960;28;20384;-78
2022/06/17 12:34:03;;;;;;;1.85;0.60;;;28.30;39.30;;;;;;5002099;28;20026;-78
2022/06/17 12:36:50;;;;;;;0.70;0.40;;;28.80;40.00;;;;;;5008867;28;20064;-79
2022/06/17 12:39:31;;;;;;;1.58;0.60;;;29.20;39.00;;;;;;5008220;28;20036;-79
2022/06/17 12:42:04;;;;;;;1.65;0.47;;;29.60;41.00;;;;;;5003711;28;20109;-78
2022/06/17 12:44:38;;;;;;;0.80;0.55;;;29.60;39.60;;;;;;5004219;28;20034;-79
2022/06/17 12:47:19;;;;;;;0.30;0.30;;;29.90;39.30;;;;;;5006640;28;20651;-79
2022/06/17 12:55:54;;;;;;;1.73;0.65;;;30.40;32.40;;;;;;5007953;28;20140;-80
2022/06/17 12:58:25;;;;;;;1.05;0.63;;;30.40;34.10;;;;;;5004038;28;20033;-80
2022/06/17 13:00:56;;;;;;;0.47;0.40;;;30.40;35.00;;;;;;4990530;28;20022;-79
2022/06/17 13:03:48;;;;;;;5.68;1.73;;;30.60;34.20;;;;;;5010911;28;20021;-78
2022/06/17 13:06:38;;;;;;;2.00;0.57;;;30.80;34.80;;;;;;5007812;28;20038;-79
2022/06/17 13:09:23;;;;;;;1.35;0.50;;;30.90;34.90;;;;;;5006965;28;20030;-79
2022/06/17 13:11:55;;;;;;;;;;;31.20;35.30;;;;;;5014118;28;20495;-78
2022/06/17 13:14:58;;;;;;;1.02;0.30;;;31.40;31.70;;;;;;5001935;28;19910;-79
2022/06/17 13:17:32;;;;;;;0.35;0.35;;;31.30;32.80;;;;;;5012894;28;20026;-79
2022/06/17 13:20:11;;;;;;;1.95;0.38;;;31.40;32.40;;;;;;5028395;28;20088;-79
2022/06/17 13:22:51;;;;;;;1.55;0.50;;;31.70;34.00;;;;;;5010279;28;20025;-79
2022/06/17 13:25:23;;;;;;;1.55;0.30;;;31.80;32.00;;;;;;5015994;28;20439;-80
2022/06/17 13:28:27;;;;;;;0.43;0.30;;;31.20;30.60;;;;;;5009651;28;20445;-79
2022/06/17 13:30:58;;;;;;;0.57;0.30;;;30.60;30.00;;;;;;4978469;28;20547;-80
2022/06/17 13:33:35;;;;;;;1.75;0.30;;;30.20;31.90;;;;;;5008354;28;20394;-79
2022/06/17 13:36:10;;;;;;;0.82;0.40;;;30.20;35.40;;;;;;5015282;28;20036;-80
2022/06/17 13:38:56;;;;;;;0.40;0.40;;;30.10;34.70;;;;;;4999588;28;20056;-79
2022/06/17 13:41:37;;;;;;;1.45;0.50;;;30.00;34.80;;;;;;5000559;28;20042;-79